sensor_id;sensor_type;location;lat;lon;timestamp;P1;durP1;ratioP1;P2;durP2;ratioP2
73980;SDS011;62348;51.412;5.436;2022-09-09T00:00:37;2.40;;;1.48;;
73980;SDS011;62348;51.412;5.436;2022-09-09T00:03:10;3.75;;;1.40;;
73980;SDS011;62348;51.412;5.436;2022-09-09T00:05:49;2.10;;;1.70;;
73980;SDS011;62348;51.412;5.436;2022-09-09T00:08:19;6.72;;;2.17;;
73980;SDS011;62348;51.412;5.436;2022-09-09T00:10:58;4.43;;;1.70;;
73980;SDS011;62348;51.412;5.436;2022-09-09T00:13:31;2.45;;;1.40;;
73980;SDS011;62348;51.412;5.436;2022-09-09T00:16:12;2.40;;;1.40;;
73980;SDS011;62348;51.412;5.436;2022-09-09T00:21:43;1.65;;;1.50;;
73980;SDS011;62348;51.412;5.436;2022-09-09T00:24:23;2.10;;;1.30;;
73980;SDS011;62348;51.412;5.436;2022-09-09T00:27:18;4.93;;;1.70;;
73980;SDS011;62348;51.412;5.436;2022-09-09T00:30:22;2.78;;;1.33;;
73980;SDS011;62348;51.412;5.436;2022-09-09T00:33:00;2.83;;;1.30;;
73980;SDS011;62348;51.412;5.436;2022-09-09T00:35:36;3.22;;;1.42;;
73980;SDS011;62348;51.412;5.436;2022-09-09T00:38:15;4.72;;;1.80;;
73980;SDS011;62348;51.412;5.436;2022-09-09T00:40:51;1.40;;;1.30;;
73980;SDS011;62348;51.412;5.436;2022-09-09T00:43:26;1.50;;;1.40;;
73980;SDS011;62348;51.412;5.436;2022-09-09T00:57:30;4.55;;;1.60;;
73980;SDS011;62348;51.412;5.436;2022-09-09T01:00:14;2.38;;;1.55;;
73980;SDS011;62348;51.412;5.436;2022-09-09T01:03:10;3.35;;;1.50;;
73980;SDS011;62348;51.412;5.436;2022-09-09T01:11:10;3.42;;;1.63;;
73980;SDS011;62348;51.412;5.436;2022-09-09T01:13:49;2.17;;;1.48;;
73980;SDS011;62348;51.412;5.436;2022-09-09T01:16:24;3.28;;;1.70;;
73980;SDS011;62348;51.412;5.436;2022-09-09T01:18:51;3.90;;;1.60;;
73980;SDS011;62348;51.412;5.436;2022-09-09T01:24:15;3.15;;;1.65;;
73980;SDS011;62348;51.412;5.436;2022-09-09T01:26:45;4.38;;;2.00;;
73980;SDS011;62348;51.412;5.436;2022-09-09T01:29:12;5.63;;;1.50;;
73980;SDS011;62348;51.412;5.436;2022-09-09T01:31:42;1.88;;;1.60;;
73980;SDS011;62348;51.412;5.436;2022-09-09T01:34:16;2.90;;;1.40;;
73980;SDS011;62348;51.412;5.436;2022-09-09T01:39:25;4.47;;;1.90;;
73980;SDS011;62348;51.412;5.436;2022-09-09T01:41:51;3.40;;;1.75;;
73980;SDS011;62348;51.412;5.436;2022-09-09T01:44:18;3.00;;;1.35;;
73980;SDS011;62348;51.412;5.436;2022-09-09T01:46:44;5.97;;;1.50;;
73980;SDS011;62348;51.412;5.436;2022-09-09T01:49:09;2.78;;;1.83;;
73980;SDS011;62348;51.412;5.436;2022-09-09T01:51:36;2.65;;;1.33;;
73980;SDS011;62348;51.412;5.436;2022-09-09T01:54:04;5.85;;;1.58;;
73980;SDS011;62348;51.412;5.436;2022-09-09T02:02:02;2.72;;;1.40;;
73980;SDS011;62348;51.412;5.436;2022-09-09T02:09:45;4.77;;;2.57;;
73980;SDS011;62348;51.412;5.436;2022-09-09T02:12:16;6.85;;;1.60;;
73980;SDS011;62348;51.412;5.436;2022-09-09T02:14:49;4.03;;;1.98;;
73980;SDS011;62348;51.412;5.436;2022-09-09T02:17:22;6.60;;;1.50;;
73980;SDS011;62348;51.412;5.436;2022-09-09T02:20:03;4.57;;;1.77;;
73980;SDS011;62348;51.412;5.436;2022-09-09T02:22:32;7.25;;;1.98;;
73980;SDS011;62348;51.412;5.436;2022-09-09T02:25:00;3.40;;;1.50;;
73980;SDS011;62348;51.412;5.436;2022-09-09T02:27:27;5.18;;;1.98;;
73980;SDS011;62348;51.412;5.436;2022-09-09T02:29:53;4.22;;;2.10;;
73980;SDS011;62348;51.412;5.436;2022-09-09T02:32:25;3.10;;;1.83;;
73980;SDS011;62348;51.412;5.436;2022-09-09T02:34:55;4.90;;;2.00;;
73980;SDS011;62348;51.412;5.436;2022-09-09T02:37:27;4.40;;;1.70;;
73980;SDS011;62348;51.412;5.436;2022-09-09T02:39:56;7.05;;;1.90;;
73980;SDS011;62348;51.412;5.436;2022-09-09T02:42:22;5.07;;;1.70;;
73980;SDS011;62348;51.412;5.436;2022-09-09T02:44:48;4.60;;;2.08;;
73980;SDS011;62348;51.412;5.436;2022-09-09T02:47:24;7.93;;;2.13;;
73980;SDS011;62348;51.412;5.436;2022-09-09T02:53:16;3.85;;;1.80;;
73980;SDS011;62348;51.412;5.436;2022-09-09T02:55:47;4.57;;;1.50;;
73980;SDS011;62348;51.412;5.436;2022-09-09T02:58:17;4.68;;;1.50;;
73980;SDS011;62348;51.412;5.436;2022-09-09T03:00:46;2.53;;;1.40;;
73980;SDS011;62348;51.412;5.436;2022-09-09T03:03:13;3.03;;;1.42;;
73980;SDS011;62348;51.412;5.436;2022-09-09T03:05:41;4.95;;;1.42;;
73980;SDS011;62348;51.412;5.436;2022-09-09T03:08:08;3.88;;;1.48;;
73980;SDS011;62348;51.412;5.436;2022-09-09T03:10:34;7.68;;;1.85;;
73980;SDS011;62348;51.412;5.436;2022-09-09T03:13:00;3.28;;;1.80;;
73980;SDS011;62348;51.412;5.436;2022-09-09T03:15:25;3.53;;;1.50;;
73980;SDS011;62348;51.412;5.436;2022-09-09T03:17:54;5.32;;;1.90;;
73980;SDS011;62348;51.412;5.436;2022-09-09T03:20:20;3.53;;;1.55;;
73980;SDS011;62348;51.412;5.436;2022-09-09T03:22:45;3.30;;;1.88;;
73980;SDS011;62348;51.412;5.436;2022-09-09T03:25:10;6.90;;;1.75;;
73980;SDS011;62348;51.412;5.436;2022-09-09T03:27:36;4.70;;;1.52;;
73980;SDS011;62348;51.412;5.436;2022-09-09T03:30:01;6.22;;;1.90;;
73980;SDS011;62348;51.412;5.436;2022-09-09T03:32:28;4.30;;;1.60;;
73980;SDS011;62348;51.412;5.436;2022-09-09T03:34:53;4.45;;;2.00;;
73980;SDS011;62348;51.412;5.436;2022-09-09T03:37:19;4.85;;;2.10;;
73980;SDS011;62348;51.412;5.436;2022-09-09T03:39:45;4.07;;;1.80;;
73980;SDS011;62348;51.412;5.436;2022-09-09T03:42:13;7.18;;;1.83;;
73980;SDS011;62348;51.412;5.436;2022-09-09T03:44:43;6.28;;;2.00;;
73980;SDS011;62348;51.412;5.436;2022-09-09T03:47:10;5.28;;;2.25;;
73980;SDS011;62348;51.412;5.436;2022-09-09T03:49:35;5.00;;;1.73;;
73980;SDS011;62348;51.412;5.436;2022-09-09T03:52:00;6.43;;;1.80;;
73980;SDS011;62348;51.412;5.436;2022-09-09T03:54:26;3.50;;;1.83;;
73980;SDS011;62348;51.412;5.436;2022-09-09T03:56:52;3.05;;;1.80;;
73980;SDS011;62348;51.412;5.436;2022-09-09T03:59:17;6.10;;;2.13;;
73980;SDS011;62348;51.412;5.436;2022-09-09T04:01:43;5.68;;;2.13;;
73980;SDS011;62348;51.412;5.436;2022-09-09T04:04:09;6.35;;;2.00;;
73980;SDS011;62348;51.412;5.436;2022-09-09T04:06:34;5.90;;;2.00;;
73980;SDS011;62348;51.412;5.436;2022-09-09T04:09:00;4.88;;;2.30;;
73980;SDS011;62348;51.412;5.436;2022-09-09T04:11:27;7.53;;;2.25;;
73980;SDS011;62348;51.412;5.436;2022-09-09T04:13:52;5.72;;;1.77;;
73980;SDS011;62348;51.412;5.436;2022-09-09T04:16:18;4.68;;;1.92;;
73980;SDS011;62348;51.412;5.436;2022-09-09T04:18:43;5.28;;;1.90;;
73980;SDS011;62348;51.412;5.436;2022-09-09T04:21:09;7.20;;;2.25;;
73980;SDS011;62348;51.412;5.436;2022-09-09T04:23:37;8.00;;;2.80;;
73980;SDS011;62348;51.412;5.436;2022-09-09T04:26:02;7.38;;;2.65;;
73980;SDS011;62348;51.412;5.436;2022-09-09T04:28:30;4.00;;;1.90;;
73980;SDS011;62348;51.412;5.436;2022-09-09T04:31:03;6.13;;;2.85;;
73980;SDS011;62348;51.412;5.436;2022-09-09T04:33:29;5.70;;;2.88;;
73980;SDS011;62348;51.412;5.436;2022-09-09T04:35:56;9.07;;;2.10;;
73980;SDS011;62348;51.412;5.436;2022-09-09T04:38:22;8.80;;;3.00;;
73980;SDS011;62348;51.412;5.436;2022-09-09T04:40:48;6.60;;;2.00;;
73980;SDS011;62348;51.412;5.436;2022-09-09T04:43:15;7.35;;;2.40;;
73980;SDS011;62348;51.412;5.436;2022-09-09T04:45:41;7.13;;;2.40;;
73980;SDS011;62348;51.412;5.436;2022-09-09T04:48:07;5.43;;;2.20;;
73980;SDS011;62348;51.412;5.436;2022-09-09T04:50:33;5.53;;;2.15;;
73980;SDS011;62348;51.412;5.436;2022-09-09T04:53:02;10.80;;;2.40;;
73980;SDS011;62348;51.412;5.436;2022-09-09T04:55:29;6.13;;;1.98;;
73980;SDS011;62348;51.412;5.436;2022-09-09T04:57:55;5.13;;;2.42;;
73980;SDS011;62348;51.412;5.436;2022-09-09T05:00:22;7.72;;;2.15;;
73980;SDS011;62348;51.412;5.436;2022-09-09T05:02:47;8.30;;;2.42;;
73980;SDS011;62348;51.412;5.436;2022-09-09T05:05:13;8.77;;;2.47;;
73980;SDS011;62348;51.412;5.436;2022-09-09T05:07:38;8.20;;;2.20;;
73980;SDS011;62348;51.412;5.436;2022-09-09T05:10:04;9.50;;;3.60;;
73980;SDS011;62348;51.412;5.436;2022-09-09T05:12:30;7.70;;;2.05;;
73980;SDS011;62348;51.412;5.436;2022-09-09T05:14:56;5.63;;;2.30;;
73980;SDS011;62348;51.412;5.436;2022-09-09T05:17:21;7.72;;;2.05;;
73980;SDS011;62348;51.412;5.436;2022-09-09T05:19:47;11.27;;;2.45;;
73980;SDS011;62348;51.412;5.436;2022-09-09T05:22:13;11.85;;;2.30;;
73980;SDS011;62348;51.412;5.436;2022-09-09T05:24:42;6.53;;;2.33;;
73980;SDS011;62348;51.412;5.436;2022-09-09T05:27:09;10.88;;;2.53;;
73980;SDS011;62348;51.412;5.436;2022-09-09T05:29:37;7.72;;;2.35;;
73980;SDS011;62348;51.412;5.436;2022-09-09T05:32:03;11.77;;;2.42;;
73980;SDS011;62348;51.412;5.436;2022-09-09T05:34:29;5.93;;;2.17;;
73980;SDS011;62348;51.412;5.436;2022-09-09T05:36:54;5.18;;;2.55;;
73980;SDS011;62348;51.412;5.436;2022-09-09T05:39:20;6.40;;;2.17;;
73980;SDS011;62348;51.412;5.436;2022-09-09T05:41:45;8.43;;;2.70;;
73980;SDS011;62348;51.412;5.436;2022-09-09T05:44:11;9.50;;;2.22;;
73980;SDS011;62348;51.412;5.436;2022-09-09T05:46:36;11.98;;;3.38;;
73980;SDS011;62348;51.412;5.436;2022-09-09T05:49:02;5.28;;;2.13;;
73980;SDS011;62348;51.412;5.436;2022-09-09T05:51:30;10.43;;;2.28;;
73980;SDS011;62348;51.412;5.436;2022-09-09T05:53:56;10.93;;;2.88;;
73980;SDS011;62348;51.412;5.436;2022-09-09T05:56:24;8.93;;;2.53;;
73980;SDS011;62348;51.412;5.436;2022-09-09T05:58:51;8.75;;;3.08;;
73980;SDS011;62348;51.412;5.436;2022-09-09T06:01:23;12.90;;;2.67;;
73980;SDS011;62348;51.412;5.436;2022-09-09T06:03:51;9.20;;;2.25;;
73980;SDS011;62348;51.412;5.436;2022-09-09T06:06:18;10.38;;;2.78;;
73980;SDS011;62348;51.412;5.436;2022-09-09T06:08:55;14.23;;;3.95;;
73980;SDS011;62348;51.412;5.436;2022-09-09T06:11:25;9.13;;;2.50;;
73980;SDS011;62348;51.412;5.436;2022-09-09T06:13:52;9.80;;;2.53;;
73980;SDS011;62348;51.412;5.436;2022-09-09T06:16:20;5.63;;;2.38;;
73980;SDS011;62348;51.412;5.436;2022-09-09T06:18:48;7.85;;;2.78;;
73980;SDS011;62348;51.412;5.436;2022-09-09T06:23:42;10.93;;;2.75;;
73980;SDS011;62348;51.412;5.436;2022-09-09T06:26:13;8.15;;;2.83;;
73980;SDS011;62348;51.412;5.436;2022-09-09T06:28:42;11.05;;;2.97;;
73980;SDS011;62348;51.412;5.436;2022-09-09T06:31:08;10.52;;;3.25;;
73980;SDS011;62348;51.412;5.436;2022-09-09T06:33:39;7.18;;;2.53;;
73980;SDS011;62348;51.412;5.436;2022-09-09T06:36:06;10.45;;;2.72;;
73980;SDS011;62348;51.412;5.436;2022-09-09T06:38:37;8.52;;;2.60;;
73980;SDS011;62348;51.412;5.436;2022-09-09T06:41:02;8.48;;;2.95;;
73980;SDS011;62348;51.412;5.436;2022-09-09T06:43:28;6.25;;;2.70;;
73980;SDS011;62348;51.412;5.436;2022-09-09T06:45:58;6.32;;;2.30;;
73980;SDS011;62348;51.412;5.436;2022-09-09T06:48:25;9.38;;;2.78;;
73980;SDS011;62348;51.412;5.436;2022-09-09T06:51:01;11.63;;;2.95;;
73980;SDS011;62348;51.412;5.436;2022-09-09T06:53:35;11.93;;;2.78;;
73980;SDS011;62348;51.412;5.436;2022-09-09T06:56:01;10.93;;;3.13;;
73980;SDS011;62348;51.412;5.436;2022-09-09T06:58:41;9.18;;;2.22;;
73980;SDS011;62348;51.412;5.436;2022-09-09T07:01:11;11.70;;;2.25;;
73980;SDS011;62348;51.412;5.436;2022-09-09T07:03:58;10.93;;;2.22;;
73980;SDS011;62348;51.412;5.436;2022-09-09T07:06:43;12.50;;;3.03;;
73980;SDS011;62348;51.412;5.436;2022-09-09T07:09:11;7.68;;;2.40;;
73980;SDS011;62348;51.412;5.436;2022-09-09T07:11:39;8.40;;;2.13;;
73980;SDS011;62348;51.412;5.436;2022-09-09T07:14:07;9.40;;;2.28;;
73980;SDS011;62348;51.412;5.436;2022-09-09T07:16:33;8.90;;;2.17;;
73980;SDS011;62348;51.412;5.436;2022-09-09T07:19:02;8.77;;;2.60;;
73980;SDS011;62348;51.412;5.436;2022-09-09T07:21:29;13.65;;;2.35;;
73980;SDS011;62348;51.412;5.436;2022-09-09T07:23:55;5.55;;;2.35;;
73980;SDS011;62348;51.412;5.436;2022-09-09T07:26:23;9.75;;;2.58;;
73980;SDS011;62348;51.412;5.436;2022-09-09T07:28:50;12.68;;;3.47;;
73980;SDS011;62348;51.412;5.436;2022-09-09T07:31:21;9.52;;;3.53;;
73980;SDS011;62348;51.412;5.436;2022-09-09T07:33:51;8.20;;;3.00;;
73980;SDS011;62348;51.412;5.436;2022-09-09T07:36:18;10.98;;;3.00;;
73980;SDS011;62348;51.412;5.436;2022-09-09T07:38:47;11.18;;;2.88;;
73980;SDS011;62348;51.412;5.436;2022-09-09T07:41:26;10.35;;;2.63;;
73980;SDS011;62348;51.412;5.436;2022-09-09T07:43:55;6.97;;;2.30;;
73980;SDS011;62348;51.412;5.436;2022-09-09T07:46:22;9.45;;;2.97;;
73980;SDS011;62348;51.412;5.436;2022-09-09T07:48:52;8.32;;;2.67;;
73980;SDS011;62348;51.412;5.436;2022-09-09T07:51:20;13.02;;;2.58;;
73980;SDS011;62348;51.412;5.436;2022-09-09T07:53:55;8.30;;;2.55;;
73980;SDS011;62348;51.412;5.436;2022-09-09T07:56:25;8.05;;;2.22;;
73980;SDS011;62348;51.412;5.436;2022-09-09T07:58:52;10.02;;;2.88;;
73980;SDS011;62348;51.412;5.436;2022-09-09T08:01:20;9.77;;;2.70;;
73980;SDS011;62348;51.412;5.436;2022-09-09T08:03:46;12.50;;;2.97;;
73980;SDS011;62348;51.412;5.436;2022-09-09T08:06:16;10.73;;;2.45;;
73980;SDS011;62348;51.412;5.436;2022-09-09T08:08:42;6.85;;;2.40;;
73980;SDS011;62348;51.412;5.436;2022-09-09T08:11:09;7.43;;;2.20;;
73980;SDS011;62348;51.412;5.436;2022-09-09T08:13:37;8.93;;;2.97;;
73980;SDS011;62348;51.412;5.436;2022-09-09T08:18:33;8.68;;;2.25;;
73980;SDS011;62348;51.412;5.436;2022-09-09T08:21:09;7.57;;;2.00;;
73980;SDS011;62348;51.412;5.436;2022-09-09T08:23:37;11.63;;;3.03;;
73980;SDS011;62348;51.412;5.436;2022-09-09T08:26:09;6.97;;;2.10;;
73980;SDS011;62348;51.412;5.436;2022-09-09T08:28:41;7.55;;;2.08;;
73980;SDS011;62348;51.412;5.436;2022-09-09T08:31:09;8.75;;;2.28;;
73980;SDS011;62348;51.412;5.436;2022-09-09T08:33:37;8.90;;;2.17;;
73980;SDS011;62348;51.412;5.436;2022-09-09T08:36:03;9.10;;;2.28;;
73980;SDS011;62348;51.412;5.436;2022-09-09T08:38:30;7.43;;;2.38;;
73980;SDS011;62348;51.412;5.436;2022-09-09T08:40:58;5.35;;;2.38;;
73980;SDS011;62348;51.412;5.436;2022-09-09T08:43:35;6.47;;;2.30;;
73980;SDS011;62348;51.412;5.436;2022-09-09T08:46:11;7.30;;;2.30;;
73980;SDS011;62348;51.412;5.436;2022-09-09T08:51:37;10.68;;;3.00;;
73980;SDS011;62348;51.412;5.436;2022-09-09T08:54:03;9.27;;;2.47;;
73980;SDS011;62348;51.412;5.436;2022-09-09T08:56:30;7.10;;;2.30;;
73980;SDS011;62348;51.412;5.436;2022-09-09T08:58:57;8.55;;;2.13;;
73980;SDS011;62348;51.412;5.436;2022-09-09T09:12:39;7.07;;;2.38;;
73980;SDS011;62348;51.412;5.436;2022-09-09T09:15:42;9.27;;;2.20;;
73980;SDS011;62348;51.412;5.436;2022-09-09T09:18:03;7.95;;;2.45;;
73980;SDS011;62348;51.412;5.436;2022-09-09T09:20:42;9.77;;;2.78;;
73980;SDS011;62348;51.412;5.436;2022-09-09T09:23:23;11.50;;;2.10;;
73980;SDS011;62348;51.412;5.436;2022-09-09T09:25:52;10.48;;;2.47;;
73980;SDS011;62348;51.412;5.436;2022-09-09T09:28:25;9.07;;;2.50;;
73980;SDS011;62348;51.412;5.436;2022-09-09T09:30:55;9.13;;;2.00;;
73980;SDS011;62348;51.412;5.436;2022-09-09T09:36:15;11.18;;;2.70;;
73980;SDS011;62348;51.412;5.436;2022-09-09T09:44:01;10.73;;;2.78;;
73980;SDS011;62348;51.412;5.436;2022-09-09T09:46:28;8.70;;;2.40;;
73980;SDS011;62348;51.412;5.436;2022-09-09T09:48:57;8.45;;;2.00;;
73980;SDS011;62348;51.412;5.436;2022-09-09T09:51:23;10.63;;;1.90;;
73980;SDS011;62348;51.412;5.436;2022-09-09T09:53:50;9.70;;;2.53;;
73980;SDS011;62348;51.412;5.436;2022-09-09T09:56:17;8.63;;;2.13;;
73980;SDS011;62348;51.412;5.436;2022-09-09T09:58:52;12.20;;;2.60;;
73980;SDS011;62348;51.412;5.436;2022-09-09T10:01:23;6.93;;;2.30;;
73980;SDS011;62348;51.412;5.436;2022-09-09T10:03:52;10.60;;;2.60;;
73980;SDS011;62348;51.412;5.436;2022-09-09T10:06:38;10.38;;;2.13;;
73980;SDS011;62348;51.412;5.436;2022-09-09T10:09:19;5.45;;;2.00;;
73980;SDS011;62348;51.412;5.436;2022-09-09T10:11:53;6.63;;;2.50;;
73980;SDS011;62348;51.412;5.436;2022-09-09T10:26:05;7.95;;;2.28;;
73980;SDS011;62348;51.412;5.436;2022-09-09T10:29:00;9.20;;;2.30;;
73980;SDS011;62348;51.412;5.436;2022-09-09T10:31:37;8.15;;;2.50;;
73980;SDS011;62348;51.412;5.436;2022-09-09T10:40:31;6.90;;;2.85;;
73980;SDS011;62348;51.412;5.436;2022-09-09T10:45:41;7.22;;;2.50;;
73980;SDS011;62348;51.412;5.436;2022-09-09T10:48:54;6.60;;;3.22;;
73980;SDS011;62348;51.412;5.436;2022-09-09T10:51:22;8.10;;;2.60;;
73980;SDS011;62348;51.412;5.436;2022-09-09T10:56:44;10.63;;;3.10;;
73980;SDS011;62348;51.412;5.436;2022-09-09T10:59:20;8.35;;;3.30;;
73980;SDS011;62348;51.412;5.436;2022-09-09T11:02:02;7.32;;;2.40;;
73980;SDS011;62348;51.412;5.436;2022-09-09T11:04:33;6.05;;;2.88;;
73980;SDS011;62348;51.412;5.436;2022-09-09T11:07:06;6.65;;;2.58;;
73980;SDS011;62348;51.412;5.436;2022-09-09T11:09:37;9.80;;;2.55;;
73980;SDS011;62348;51.412;5.436;2022-09-09T11:12:09;4.65;;;2.40;;
73980;SDS011;62348;51.412;5.436;2022-09-09T11:17:45;6.00;;;2.30;;
73980;SDS011;62348;51.412;5.436;2022-09-09T11:20:15;4.72;;;2.13;;
73980;SDS011;62348;51.412;5.436;2022-09-09T11:25:58;4.20;;;1.90;;
73980;SDS011;62348;51.412;5.436;2022-09-09T11:28:46;6.15;;;2.30;;
73980;SDS011;62348;51.412;5.436;2022-09-09T11:40:23;5.97;;;2.20;;
73980;SDS011;62348;51.412;5.436;2022-09-09T11:43:00;4.10;;;2.17;;
73980;SDS011;62348;51.412;5.436;2022-09-09T11:45:29;7.07;;;2.55;;
73980;SDS011;62348;51.412;5.436;2022-09-09T11:47:56;5.35;;;2.20;;
73980;SDS011;62348;51.412;5.436;2022-09-09T11:52:49;5.82;;;2.58;;
73980;SDS011;62348;51.412;5.436;2022-09-09T11:55:28;5.50;;;2.55;;
73980;SDS011;62348;51.412;5.436;2022-09-09T11:58:01;6.80;;;2.38;;
73980;SDS011;62348;51.412;5.436;2022-09-09T12:00:36;13.00;;;2.90;;
73980;SDS011;62348;51.412;5.436;2022-09-09T12:03:31;6.57;;;2.20;;
73980;SDS011;62348;51.412;5.436;2022-09-09T12:06:09;10.68;;;2.65;;
73980;SDS011;62348;51.412;5.436;2022-09-09T12:08:36;8.43;;;2.10;;
73980;SDS011;62348;51.412;5.436;2022-09-09T12:11:06;7.25;;;2.35;;
73980;SDS011;62348;51.412;5.436;2022-09-09T12:13:31;9.23;;;2.60;;
73980;SDS011;62348;51.412;5.436;2022-09-09T12:15:58;5.22;;;2.08;;
73980;SDS011;62348;51.412;5.436;2022-09-09T12:18:45;5.57;;;2.10;;
73980;SDS011;62348;51.412;5.436;2022-09-09T12:23:55;5.43;;;2.25;;
73980;SDS011;62348;51.412;5.436;2022-09-09T12:36:39;9.13;;;2.03;;
73980;SDS011;62348;51.412;5.436;2022-09-09T12:39:15;8.15;;;3.08;;
73980;SDS011;62348;51.412;5.436;2022-09-09T12:41:53;5.38;;;2.13;;
73980;SDS011;62348;51.412;5.436;2022-09-09T12:44:21;7.63;;;2.30;;
73980;SDS011;62348;51.412;5.436;2022-09-09T12:46:47;7.93;;;2.33;;
73980;SDS011;62348;51.412;5.436;2022-09-09T12:52:04;4.35;;;1.85;;
73980;SDS011;62348;51.412;5.436;2022-09-09T12:54:34;8.00;;;2.63;;
73980;SDS011;62348;51.412;5.436;2022-09-09T12:57:01;5.47;;;1.80;;
73980;SDS011;62348;51.412;5.436;2022-09-09T12:59:35;5.68;;;2.10;;
73980;SDS011;62348;51.412;5.436;2022-09-09T13:02:10;9.25;;;2.03;;
73980;SDS011;62348;51.412;5.436;2022-09-09T13:04:42;5.97;;;1.90;;
73980;SDS011;62348;51.412;5.436;2022-09-09T13:07:09;5.22;;;2.05;;
73980;SDS011;62348;51.412;5.436;2022-09-09T13:09:34;5.32;;;2.10;;
73980;SDS011;62348;51.412;5.436;2022-09-09T13:12:00;3.95;;;1.40;;
73980;SDS011;62348;51.412;5.436;2022-09-09T13:14:34;4.93;;;1.25;;
73980;SDS011;62348;51.412;5.436;2022-09-09T13:17:05;8.07;;;1.95;;
73980;SDS011;62348;51.412;5.436;2022-09-09T13:19:33;3.85;;;1.52;;
73980;SDS011;62348;51.412;5.436;2022-09-09T13:25:18;7.13;;;1.70;;
73980;SDS011;62348;51.412;5.436;2022-09-09T13:27:56;5.22;;;1.65;;
73980;SDS011;62348;51.412;5.436;2022-09-09T13:30:33;5.93;;;1.60;;
73980;SDS011;62348;51.412;5.436;2022-09-09T13:35:45;4.22;;;2.00;;
73980;SDS011;62348;51.412;5.436;2022-09-09T13:38:52;7.07;;;1.90;;
73980;SDS011;62348;51.412;5.436;2022-09-09T13:41:24;3.20;;;1.80;;
73980;SDS011;62348;51.412;5.436;2022-09-09T13:43:55;5.60;;;1.67;;
73980;SDS011;62348;51.412;5.436;2022-09-09T13:49:00;6.40;;;1.70;;
73980;SDS011;62348;51.412;5.436;2022-09-09T13:54:05;2.88;;;1.50;;
73980;SDS011;62348;51.412;5.436;2022-09-09T13:56:34;5.40;;;1.10;;
73980;SDS011;62348;51.412;5.436;2022-09-09T13:59:00;4.45;;;1.38;;
73980;SDS011;62348;51.412;5.436;2022-09-09T14:01:26;3.10;;;1.60;;
73980;SDS011;62348;51.412;5.436;2022-09-09T14:03:52;7.07;;;1.80;;
73980;SDS011;62348;51.412;5.436;2022-09-09T14:06:18;4.15;;;1.35;;
73980;SDS011;62348;51.412;5.436;2022-09-09T14:08:44;6.40;;;2.13;;
73980;SDS011;62348;51.412;5.436;2022-09-09T14:11:11;4.55;;;1.73;;
73980;SDS011;62348;51.412;5.436;2022-09-09T14:13:39;3.53;;;1.15;;
73980;SDS011;62348;51.412;5.436;2022-09-09T14:16:05;5.47;;;1.55;;
73980;SDS011;62348;51.412;5.436;2022-09-09T14:18:30;5.82;;;1.23;;
73980;SDS011;62348;51.412;5.436;2022-09-09T14:20:56;5.45;;;1.15;;
73980;SDS011;62348;51.412;5.436;2022-09-09T14:23:23;6.10;;;2.20;;
73980;SDS011;62348;51.412;5.436;2022-09-09T14:25:49;6.65;;;1.42;;
73980;SDS011;62348;51.412;5.436;2022-09-09T14:28:15;3.42;;;1.23;;
73980;SDS011;62348;51.412;5.436;2022-09-09T14:30:41;5.00;;;1.75;;
73980;SDS011;62348;51.412;5.436;2022-09-09T14:33:09;3.85;;;1.48;;
73980;SDS011;62348;51.412;5.436;2022-09-09T14:35:37;5.90;;;1.58;;
73980;SDS011;62348;51.412;5.436;2022-09-09T14:38:03;4.35;;;1.50;;
73980;SDS011;62348;51.412;5.436;2022-09-09T14:40:29;4.43;;;1.40;;
73980;SDS011;62348;51.412;5.436;2022-09-09T14:42:55;5.00;;;1.52;;
73980;SDS011;62348;51.412;5.436;2022-09-09T14:45:21;5.18;;;1.73;;
73980;SDS011;62348;51.412;5.436;2022-09-09T14:47:49;3.75;;;1.65;;
73980;SDS011;62348;51.412;5.436;2022-09-09T14:50:15;3.78;;;1.52;;
73980;SDS011;62348;51.412;5.436;2022-09-09T14:52:41;4.00;;;1.38;;
73980;SDS011;62348;51.412;5.436;2022-09-09T14:55:06;4.00;;;1.30;;
73980;SDS011;62348;51.412;5.436;2022-09-09T14:57:32;4.85;;;1.75;;
73980;SDS011;62348;51.412;5.436;2022-09-09T14:59:59;6.43;;;2.30;;
73980;SDS011;62348;51.412;5.436;2022-09-09T15:02:25;3.75;;;1.70;;
73980;SDS011;62348;51.412;5.436;2022-09-09T15:04:50;4.95;;;1.50;;
73980;SDS011;62348;51.412;5.436;2022-09-09T15:07:16;2.92;;;1.17;;
73980;SDS011;62348;51.412;5.436;2022-09-09T15:09:44;3.65;;;1.27;;
73980;SDS011;62348;51.412;5.436;2022-09-09T15:12:10;4.90;;;2.15;;
73980;SDS011;62348;51.412;5.436;2022-09-09T15:14:35;5.25;;;2.15;;
73980;SDS011;62348;51.412;5.436;2022-09-09T15:17:01;3.85;;;1.20;;
73980;SDS011;62348;51.412;5.436;2022-09-09T15:19:26;4.15;;;1.17;;
73980;SDS011;62348;51.412;5.436;2022-09-09T15:21:52;3.85;;;1.30;;
73980;SDS011;62348;51.412;5.436;2022-09-09T15:24:17;6.30;;;1.20;;
73980;SDS011;62348;51.412;5.436;2022-09-09T15:26:43;4.70;;;1.10;;
73980;SDS011;62348;51.412;5.436;2022-09-09T15:29:08;3.47;;;1.40;;
73980;SDS011;62348;51.412;5.436;2022-09-09T15:31:34;3.65;;;1.30;;
73980;SDS011;62348;51.412;5.436;2022-09-09T15:34:01;6.90;;;1.38;;
73980;SDS011;62348;51.412;5.436;2022-09-09T15:36:35;4.07;;;1.20;;
73980;SDS011;62348;51.412;5.436;2022-09-09T15:39:09;2.88;;;1.17;;
73980;SDS011;62348;51.412;5.436;2022-09-09T15:41:40;5.32;;;1.48;;
73980;SDS011;62348;51.412;5.436;2022-09-09T15:44:06;2.30;;;1.30;;
73980;SDS011;62348;51.412;5.436;2022-09-09T15:46:35;4.93;;;1.42;;
73980;SDS011;62348;51.412;5.436;2022-09-09T15:49:06;4.43;;;1.63;;
73980;SDS011;62348;51.412;5.436;2022-09-09T15:51:43;2.30;;;1.40;;
73980;SDS011;62348;51.412;5.436;2022-09-09T15:54:10;5.25;;;1.50;;
73980;SDS011;62348;51.412;5.436;2022-09-09T15:56:38;4.18;;;1.65;;
73980;SDS011;62348;51.412;5.436;2022-09-09T15:59:03;4.22;;;1.73;;
73980;SDS011;62348;51.412;5.436;2022-09-09T16:01:30;4.82;;;1.40;;
73980;SDS011;62348;51.412;5.436;2022-09-09T16:03:56;7.30;;;2.63;;
73980;SDS011;62348;51.412;5.436;2022-09-09T16:06:22;3.45;;;1.58;;
73980;SDS011;62348;51.412;5.436;2022-09-09T16:08:51;2.25;;;1.20;;
73980;SDS011;62348;51.412;5.436;2022-09-09T16:11:19;4.22;;;1.50;;
73980;SDS011;62348;51.412;5.436;2022-09-09T16:13:47;4.07;;;1.10;;
73980;SDS011;62348;51.412;5.436;2022-09-09T16:16:15;5.07;;;1.33;;
73980;SDS011;62348;51.412;5.436;2022-09-09T16:18:44;4.70;;;1.20;;
73980;SDS011;62348;51.412;5.436;2022-09-09T16:21:13;6.07;;;1.67;;
73980;SDS011;62348;51.412;5.436;2022-09-09T16:23:43;6.77;;;1.57;;
73980;SDS011;62348;51.412;5.436;2022-09-09T16:26:13;4.07;;;1.60;;
73980;SDS011;62348;51.412;5.436;2022-09-09T16:28:39;10.10;;;2.97;;
73980;SDS011;62348;51.412;5.436;2022-09-09T16:31:06;4.97;;;1.92;;
73980;SDS011;62348;51.412;5.436;2022-09-09T16:33:32;7.40;;;1.90;;
73980;SDS011;62348;51.412;5.436;2022-09-09T16:36:04;8.60;;;2.40;;
73980;SDS011;62348;51.412;5.436;2022-09-09T16:38:33;5.78;;;1.80;;
73980;SDS011;62348;51.412;5.436;2022-09-09T16:41:00;6.68;;;1.75;;
73980;SDS011;62348;51.412;5.436;2022-09-09T16:43:27;3.20;;;1.55;;
73980;SDS011;62348;51.412;5.436;2022-09-09T16:45:52;5.43;;;1.48;;
73980;SDS011;62348;51.412;5.436;2022-09-09T16:48:17;5.68;;;1.92;;
73980;SDS011;62348;51.412;5.436;2022-09-09T16:50:43;4.70;;;1.33;;
73980;SDS011;62348;51.412;5.436;2022-09-09T16:53:09;1.95;;;0.77;;
73980;SDS011;62348;51.412;5.436;2022-09-09T16:55:41;4.07;;;1.35;;
73980;SDS011;62348;51.412;5.436;2022-09-09T16:58:07;2.55;;;0.70;;
73980;SDS011;62348;51.412;5.436;2022-09-09T17:00:35;3.38;;;1.10;;
73980;SDS011;62348;51.412;5.436;2022-09-09T17:03:01;4.05;;;1.48;;
73980;SDS011;62348;51.412;5.436;2022-09-09T17:05:27;2.38;;;1.25;;
73980;SDS011;62348;51.412;5.436;2022-09-09T17:07:53;4.25;;;1.20;;
73980;SDS011;62348;51.412;5.436;2022-09-09T17:10:21;1.58;;;0.70;;
73980;SDS011;62348;51.412;5.436;2022-09-09T17:12:46;1.55;;;0.85;;
73980;SDS011;62348;51.412;5.436;2022-09-09T17:15:12;2.50;;;1.00;;